Time;durP1;ratioP1;P1;durP2;ratioP2;P2;SDS_P1;SDS_P2;PMS_P1;PMS_P2;Temp;Humidity;BMP_temperature;BMP_pressure;BME280_temperature;BME280_humidity;BME280_pressure;Samples;Min_cycle;Max_cycle;Signal;HPM_P1;HPM_P2
2023/12/30 00:01:35;;;;;;;33.43;17.60;;;6.90;99.90;;;;;;5071823;28;20068;-80
2023/12/30 00:04:01;;;;;;;32.67;16.57;;;6.90;99.90;;;;;;5073096;28;20044;-81
2023/12/30 00:06:26;;;;;;;26.03;17.07;;;6.80;99.90;;;;;;5073290;28;20029;-82
2023/12/30 00:08:52;;;;;;;29.80;17.73;;;6.70;99.90;;;;;;5073282;28;20024;-82
2023/12/30 00:11:18;;;;;;;30.60;17.83;;;6.70;99.90;;;;;;5073498;28;20032;-80
2023/12/30 00:13:43;;;;;;;31.10;17.47;;;6.60;99.90;;;;;;5073089;28;20025;-80
2023/12/30 00:16:10;;;;;;;37.93;18.43;;;6.50;99.90;;;;;;5074515;28;20028;-82
2023/12/30 00:18:36;;;;;;;42.08;21.52;;;6.60;99.90;;;;;;5073403;28;20150;-82
2023/12/30 00:21:02;;;;;;;43.10;21.42;;;6.60;99.90;;;;;;5072456;28;20082;-80
2023/12/30 00:23:28;;;;;;;35.72;21.30;;;6.60;99.90;;;;;;5073175;28;20086;-80
2023/12/30 00:25:54;;;;;;;39.23;21.93;;;6.60;99.90;;;;;;5073342;28;20017;-80
2023/12/30 00:28:23;;;;;;;44.38;20.75;;;6.50;99.90;;;;;;5071428;28;20570;-80
2023/12/30 00:30:49;;;;;;;37.72;20.02;;;6.60;99.90;;;;;;5072306;28;20039;-81
2023/12/30 00:33:14;;;;;;;42.23;18.40;;;6.50;99.90;;;;;;5070639;28;20032;-80
2023/12/30 00:35:40;;;;;;;35.07;18.30;;;6.50;99.90;;;;;;5072517;28;20344;-80
2023/12/30 00:38:06;;;;;;;34.73;18.60;;;6.50;99.90;;;;;;5060335;28;20021;-82
2023/12/30 00:40:32;;;;;;;40.40;18.08;;;6.50;99.90;;;;;;5067969;28;20044;-82
2023/12/30 00:42:57;;;;;;;39.38;19.15;;;6.60;99.90;;;;;;5050717;28;20579;-82
2023/12/30 00:45:23;;;;;;;37.60;18.77;;;6.60;99.90;;;;;;5051308;28;20498;-80
2023/12/30 00:47:49;;;;;;;38.23;18.13;;;6.60;99.90;;;;;;5067782;28;20025;-81
2023/12/30 00:50:15;;;;;;;29.77;17.35;;;6.50;99.90;;;;;;5051345;28;20043;-82
2023/12/30 00:52:40;;;;;;;29.20;16.77;;;6.50;99.90;;;;;;5052588;28;20441;-82
2023/12/30 00:55:07;;;;;;;37.47;18.10;;;6.60;99.90;;;;;;5052788;28;20115;-81
2023/12/30 00:57:32;;;;;;;30.70;16.73;;;6.60;99.90;;;;;;5068297;28;20079;-80
2023/12/30 00:59:58;;;;;;;30.73;16.38;;;6.60;99.90;;;;;;5051750;28;20032;-81
2023/12/30 01:02:24;;;;;;;30.30;17.77;;;6.60;99.90;;;;;;5052076;28;20540;-80
2023/12/30 01:04:49;;;;;;;32.67;16.83;;;6.50;99.90;;;;;;5050168;28;20394;-81
2023/12/30 01:07:15;;;;;;;31.47;17.90;;;6.50;99.90;;;;;;5050716;28;20379;-81
2023/12/30 01:09:40;;;;;;;36.83;17.80;;;6.50;99.90;;;;;;5048955;28;20494;-81
2023/12/30 01:12:07;;;;;;;29.47;16.77;;;6.40;99.90;;;;;;5051923;28;20059;-81
2023/12/30 01:14:33;;;;;;;30.60;16.23;;;6.30;99.90;;;;;;5050798;28;20498;-80
2023/12/30 01:16:58;;;;;;;28.60;16.88;;;6.30;99.90;;;;;;5052275;28;20029;-81
2023/12/30 01:19:24;;;;;;;32.67;17.27;;;6.30;99.90;;;;;;5034510;28;20929;-82
2023/12/30 01:21:50;;;;;;;26.98;15.52;;;6.20;99.90;;;;;;5032758;28;20060;-79
2023/12/30 01:24:16;;;;;;;30.00;14.35;;;6.10;99.90;;;;;;5031016;28;20033;-82
2023/12/30 01:26:42;;;;;;;34.07;15.53;;;6.20;99.90;;;;;;5032630;28;20112;-81
2023/12/30 01:29:08;;;;;;;33.30;15.73;;;6.20;99.90;;;;;;5032679;28;20475;-81
2023/12/30 01:31:36;;;;;;;28.90;15.50;;;6.10;99.90;;;;;;5032784;28;20116;-81
2023/12/30 01:34:02;;;;;;;25.67;14.98;;;6.10;99.90;;;;;;5032101;28;20276;-79
2023/12/30 01:36:28;;;;;;;29.02;15.60;;;6.10;99.90;;;;;;5087974;28;20059;-81
2023/12/30 01:38:53;;;;;;;25.98;14.48;;;6.20;99.90;;;;;;5050363;28;20017;-79
2023/12/30 01:41:19;;;;;;;30.77;16.13;;;6.10;99.90;;;;;;5050480;28;20041;-80
2023/12/30 01:43:45;;;;;;;33.30;17.90;;;6.10;99.90;;;;;;5058794;28;20127;-81
2023/12/30 01:46:12;;;;;;;30.07;15.87;;;6.10;99.90;;;;;;5050952;28;20025;-80
2023/12/30 01:48:38;;;;;;;27.88;15.82;;;6.20;99.90;;;;;;5050998;28;20490;-81
2023/12/30 01:51:07;;;;;;;31.55;16.90;;;6.10;99.90;;;;;;5051806;28;20029;-81
2023/12/30 01:53:38;;;;;;;34.67;14.80;;;6.10;99.90;;;;;;5051750;28;20031;-80
2023/12/30 01:56:05;;;;;;;27.25;15.40;;;6.10;99.90;;;;;;5059988;28;20054;-80
2023/12/30 01:58:32;;;;;;;30.42;15.68;;;6.10;99.90;;;;;;5058707;28;20031;-80
2023/12/30 02:00:58;;;;;;;;;;;6.10;99.90;;;;;;5051135;28;20028;-82
2023/12/30 02:03:24;;;;;;;24.88;14.43;;;6.00;99.90;;;;;;5050962;28;20464;-80
2023/12/30 02:05:50;;;;;;;25.98;14.48;;;6.10;99.90;;;;;;5051468;28;20035;-80
2023/12/30 02:08:16;;;;;;;30.27;15.50;;;6.20;99.90;;;;;;5051381;28;20029;-81
2023/12/30 02:10:42;;;;;;;;;;;6.10;99.90;;;;;;5051528;28;20098;-79
2023/12/30 02:13:08;;;;;;;38.85;16.35;;;6.20;99.90;;;;;;5050061;28;19905;-79
2023/12/30 02:15:35;;;;;;;32.60;16.25;;;6.10;99.90;;;;;;5050377;28;20106;-79
2023/12/30 02:18:02;;;;;;;26.17;15.10;;;6.20;99.90;;;;;;5050247;28;20510;-79
2023/12/30 02:20:28;;;;;;;30.52;15.15;;;6.20;99.90;;;;;;5049850;28;20032;-81
2023/12/30 02:22:54;;;;;;;24.20;14.35;;;6.20;99.90;;;;;;5049716;28;20047;-79
2023/12/30 02:25:22;;;;;;;26.80;14.60;;;6.20;99.90;;;;;;5049981;28;20025;-79
2023/12/30 02:27:48;;;;;;;26.20;15.35;;;6.10;99.90;;;;;;5059987;28;20024;-80
2023/12/30 02:30:14;;;;;;;25.80;14.70;;;6.10;99.90;;;;;;5070946;28;20029;-79
2023/12/30 02:32:40;;;;;;;;;;;6.10;99.90;;;;;;5065615;28;20025;-79
2023/12/30 02:35:06;;;;;;;25.98;14.65;;;6.10;99.90;;;;;;5052694;28;20421;-80
2023/12/30 02:37:32;;;;;;;31.90;15.07;;;6.10;99.90;;;;;;5069926;28;20513;-80
2023/12/30 02:39:58;;;;;;;26.50;15.00;;;6.10;99.90;;;;;;5069509;28;20113;-82
2023/12/30 02:42:23;;;;;;;28.58;15.05;;;6.00;99.90;;;;;;5070477;28;20520;-80
2023/12/30 02:44:49;;;;;;;25.37;15.07;;;6.00;99.90;;;;;;5069461;28;20806;-81
2023/12/30 02:47:15;;;;;;;30.38;13.82;;;6.00;99.90;;;;;;5069388;28;20039;-80
2023/12/30 02:49:45;;;;;;;31.30;14.73;;;5.90;99.90;;;;;;5069211;28;20028;-80
2023/12/30 02:52:11;;;;;;;30.08;16.00;;;5.90;99.90;;;;;;5070722;28;20104;-80
2023/12/30 02:54:37;;;;;;;30.33;15.25;;;5.90;99.90;;;;;;5070749;28;20104;-80
2023/12/30 02:57:03;;;;;;;25.15;15.45;;;5.90;99.90;;;;;;5053254;28;20506;-81
2023/12/30 02:59:29;;;;;;;28.95;15.45;;;5.90;99.90;;;;;;5049629;28;20028;-81
2023/12/30 03:01:55;;;;;;;32.47;17.17;;;5.90;99.90;;;;;;5049849;28;20052;-81
2023/12/30 03:04:21;;;;;;;33.90;16.20;;;5.80;99.90;;;;;;5048773;28;20052;-82
2023/12/30 03:06:46;;;;;;;34.63;16.97;;;5.70;99.90;;;;;;5048208;28;20505;-80
2023/12/30 03:09:12;;;;;;;27.67;15.23;;;5.70;99.90;;;;;;5049226;28;20566;-80
2023/12/30 03:11:38;;;;;;;31.17;15.57;;;5.60;99.90;;;;;;5049629;28;20033;-79
2023/12/30 03:14:03;;;;;;;30.65;15.15;;;5.60;99.90;;;;;;5050622;28;20071;-80
2023/12/30 03:16:29;;;;;;;31.90;16.70;;;5.60;99.90;;;;;;5050383;28;20033;-80
2023/12/30 03:18:55;;;;;;;29.50;15.77;;;5.50;99.90;;;;;;5050258;28;20676;-79
2023/12/30 03:21:21;;;;;;;33.10;16.13;;;5.50;99.90;;;;;;5049007;28;20040;-81
2023/12/30 03:23:47;;;;;;;28.00;16.75;;;5.60;99.90;;;;;;5050770;28;20437;-80
2023/12/30 03:26:12;;;;;;;27.38;15.98;;;5.50;99.90;;;;;;5050111;28;20028;-80
2023/12/30 03:28:38;;;;;;;31.70;15.87;;;5.50;99.90;;;;;;5050096;28;20033;-80
2023/12/30 03:31:05;;;;;;;37.17;16.20;;;5.40;99.90;;;;;;5050389;28;20029;-80
2023/12/30 03:33:30;;;;;;;26.88;15.82;;;5.40;99.90;;;;;;5051335;28;20090;-79
2023/12/30 03:35:56;;;;;;;33.17;17.23;;;5.40;99.90;;;;;;5053530;28;20024;-80
2023/12/30 03:38:22;;;;;;;31.00;15.37;;;5.40;99.90;;;;;;5054093;28;20276;-76
2023/12/30 03:40:47;;;;;;;27.13;15.13;;;5.30;99.90;;;;;;5052533;28;20391;-77
2023/12/30 03:43:14;;;;;;;27.77;15.18;;;5.30;99.90;;;;;;5053925;28;20029;-78
2023/12/30 03:45:39;;;;;;;40.00;18.40;;;5.30;99.90;;;;;;5052985;28;20029;-78
2023/12/30 03:48:06;;;;;;;31.35;17.42;;;5.30;99.90;;;;;;5051531;28;20398;-79
2023/12/30 03:50:31;;;;;;;36.40;17.33;;;5.30;99.90;;;;;;5051642;28;20025;-79
2023/12/30 03:52:57;;;;;;;29.30;15.83;;;5.20;99.90;;;;;;5052965;28;20031;-78
2023/12/30 03:55:22;;;;;;;27.00;15.07;;;5.20;99.90;;;;;;5054021;28;20021;-78
2023/12/30 03:57:48;;;;;;;26.70;15.50;;;5.10;99.90;;;;;;5053772;28;20029;-79
2023/12/30 04:00:14;;;;;;;29.10;16.30;;;5.10;99.90;;;;;;5053722;28;20479;-78
2023/12/30 04:02:40;;;;;;;26.48;14.82;;;5.10;99.90;;;;;;5053536;28;20032;-78
2023/12/30 04:05:06;;;;;;;30.33;15.93;;;5.00;99.90;;;;;;5053850;28;20514;-79
2023/12/30 04:07:32;;;;;;;28.75;15.82;;;5.10;99.90;;;;;;5052720;28;20029;-79
2023/12/30 04:09:58;;;;;;;28.70;15.65;;;5.00;99.90;;;;;;5053726;28;20116;-78
2023/12/30 04:12:24;;;;;;;27.42;15.43;;;5.10;99.90;;;;;;5053884;28;20032;-77
2023/12/30 04:14:50;;;;;;;31.77;15.85;;;5.10;99.90;;;;;;5054276;28;20127;-78
2023/12/30 04:17:16;;;;;;;28.35;15.75;;;5.10;99.90;;;;;;5052934;28;20037;-78
2023/12/30 04:19:42;;;;;;;29.13;15.90;;;5.10;99.90;;;;;;5053959;28;20032;-77
2023/12/30 04:22:07;;;;;;;32.87;16.97;;;5.00;99.90;;;;;;5052592;28;20120;-77
2023/12/30 04:24:33;;;;;;;26.33;14.50;;;5.00;99.90;;;;;;5052233;28;20045;-77
2023/12/30 04:26:58;;;;;;;26.23;15.00;;;4.90;99.90;;;;;;5062378;28;20160;-78
2023/12/30 04:29:26;;;;;;;33.23;15.77;;;4.90;99.90;;;;;;5073187;28;20029;-78
2023/12/30 04:31:51;;;;;;;30.92;15.80;;;4.90;99.90;;;;;;5073970;28;20032;-76
2023/12/30 04:34:17;;;;;;;27.30;15.25;;;4.90;99.90;;;;;;5073826;28;20478;-78
2023/12/30 04:36:43;;;;;;;25.63;14.82;;;4.90;99.90;;;;;;5073419;28;20037;-78
2023/12/30 04:39:09;;;;;;;30.33;14.63;;;4.90;99.90;;;;;;5073006;28;20115;-77
2023/12/30 04:41:35;;;;;;;23.97;13.17;;;4.90;99.90;;;;;;5072931;28;20067;-78
2023/12/30 04:44:01;;;;;;;23.55;13.20;;;4.90;99.90;;;;;;5070600;28;20032;-78
2023/12/30 04:46:27;;;;;;;27.65;15.27;;;4.90;99.90;;;;;;5072603;28;20563;-78
2023/12/30 04:48:54;;;;;;;32.17;14.73;;;4.90;99.90;;;;;;5072256;28;20107;-78
2023/12/30 04:51:21;;;;;;;27.60;13.93;;;4.90;99.90;;;;;;5072824;28;20024;-78
2023/12/30 04:53:46;;;;;;;25.20;14.30;;;4.90;99.90;;;;;;5072721;28;20440;-78
2023/12/30 04:56:16;;;;;;;28.73;13.53;;;4.90;99.90;;;;;;5072459;28;20040;-78
2023/12/30 04:58:42;;;;;;;28.70;14.95;;;4.80;99.90;;;;;;5072241;28;20115;-78
2023/12/30 05:01:08;;;;;;;25.70;13.60;;;4.80;99.90;;;;;;5072396;28;20112;-78
2023/12/30 05:03:35;;;;;;;28.15;13.57;;;4.80;99.90;;;;;;5072234;28;20884;-78
2023/12/30 05:06:02;;;;;;;25.20;14.45;;;4.80;99.90;;;;;;5072428;28;20021;-77
2023/12/30 05:08:28;;;;;;;;;;;4.70;99.90;;;;;;5073294;28;20036;-78
2023/12/30 05:10:53;;;;;;;22.25;12.98;;;4.70;99.90;;;;;;5045827;28;19912;-78
2023/12/30 05:13:23;;;;;;;28.47;12.53;;;4.80;99.90;;;;;;5035277;28;20075;-78
2023/12/30 05:15:49;;;;;;;25.88;13.95;;;4.70;99.90;;;;;;5050621;28;20029;-77
2023/12/30 05:18:15;;;;;;;22.50;12.00;;;4.70;99.90;;;;;;5052183;28;20024;-78
2023/12/30 05:20:41;;;;;;;30.38;12.85;;;4.70;99.90;;;;;;5052179;28;20099;-77
2023/12/30 05:23:07;;;;;;;25.55;13.63;;;4.60;99.90;;;;;;5052067;28;20108;-79
2023/12/30 05:25:33;;;;;;;23.08;14.02;;;4.60;99.90;;;;;;5050778;28;20029;-78
2023/12/30 05:27:58;;;;;;;31.53;13.83;;;4.50;99.90;;;;;;5051823;28;20032;-78
2023/12/30 05:30:24;;;;;;;26.27;13.23;;;4.60;99.90;;;;;;5052081;28;20017;-77
2023/12/30 05:32:50;;;;;;;29.30;13.53;;;4.60;99.90;;;;;;5051301;28;20275;-78
2023/12/30 05:35:15;;;;;;;24.73;13.30;;;4.60;99.90;;;;;;5053232;28;20060;-78
2023/12/30 05:37:41;;;;;;;25.57;13.30;;;4.50;99.90;;;;;;5052275;28;20043;-78
2023/12/30 05:40:08;;;;;;;22.93;13.83;;;4.40;99.90;;;;;;5051957;28;20021;-78
2023/12/30 05:42:34;;;;;;;26.73;13.45;;;4.40;99.90;;;;;;5051692;28;20464;-78
2023/12/30 05:45:00;;;;;;;21.63;11.93;;;4.40;99.90;;;;;;5050194;28;20090;-78
2023/12/30 05:47:26;;;;;;;23.13;13.20;;;4.30;99.90;;;;;;5051885;28;20033;-78
2023/12/30 05:49:51;;;;;;;30.10;14.13;;;4.30;99.90;;;;;;5050450;28;20298;-78
2023/12/30 05:52:17;;;;;;;27.90;14.27;;;4.30;99.90;;;;;;5051181;28;20024;-78
2023/12/30 05:54:45;;;;;;;28.13;13.47;;;4.30;99.90;;;;;;5050552;28;20021;-78
2023/12/30 05:57:10;;;;;;;24.92;13.35;;;4.20;99.90;;;;;;5068269;28;20286;-78
2023/12/30 05:59:36;;;;;;;25.98;12.77;;;4.20;99.90;;;;;;5071509;28;20024;-76
2023/12/30 06:02:02;;;;;;;26.48;12.68;;;4.20;99.90;;;;;;5071455;28;20037;-77
2023/12/30 06:04:29;;;;;;;23.88;12.85;;;4.20;99.90;;;;;;5069594;28;20035;-77
2023/12/30 06:06:55;;;;;;;;;;;4.20;99.90;;;;;;5070339;28;20041;-77
2023/12/30 06:09:21;;;;;;;24.27;12.50;;;4.10;99.90;;;;;;5070888;28;20348;-75
2023/12/30 06:11:46;;;;;;;21.97;12.73;;;4.10;99.90;;;;;;5070938;28;20055;-77
2023/12/30 06:14:12;;;;;;;31.10;11.67;;;4.10;99.90;;;;;;5065075;28;20374;-78
2023/12/30 06:16:39;;;;;;;22.40;12.83;;;4.10;99.90;;;;;;5039092;28;20547;-77
2023/12/30 06:19:04;;;;;;;24.05;13.07;;;4.10;99.90;;;;;;5045794;28;20368;-77
2023/12/30 06:21:30;;;;;;;28.70;13.13;;;4.10;99.90;;;;;;5045497;28;20094;-77
2023/12/30 06:23:56;;;;;;;26.93;12.40;;;4.00;99.90;;;;;;5046524;28;20045;-76
2023/12/30 06:26:21;;;;;;;21.87;12.60;;;4.10;99.90;;;;;;5042629;28;20494;-77
2023/12/30 06:28:47;;;;;;;24.20;12.63;;;4.10;99.90;;;;;;5040168;28;20116;-77
2023/12/30 06:31:13;;;;;;;23.95;13.15;;;4.10;99.90;;;;;;5050383;28;20033;-77
2023/12/30 06:33:39;;;;;;;24.27;13.13;;;4.10;99.90;;;;;;5049424;28;20017;-76
2023/12/30 06:36:05;;;;;;;24.50;13.57;;;4.10;99.90;;;;;;5045044;28;20064;-76
2023/12/30 06:38:31;;;;;;;25.90;12.82;;;4.00;99.90;;;;;;5041854;28;20155;-77
2023/12/30 06:40:56;;;;;;;23.15;12.88;;;4.00;99.90;;;;;;5036540;28;20124;-76
2023/12/30 06:43:22;;;;;;;27.27;12.97;;;3.90;99.90;;;;;;5048802;28;20450;-77
2023/12/30 06:45:48;;;;;;;26.00;13.60;;;3.90;99.90;;;;;;5036789;28;20037;-77
2023/12/30 06:48:13;;;;;;;24.30;12.73;;;3.90;99.90;;;;;;5053875;28;20422;-77
2023/12/30 06:50:39;;;;;;;30.63;13.50;;;3.90;99.90;;;;;;5049124;28;20036;-76
2023/12/30 06:53:04;;;;;;;25.23;14.03;;;3.80;99.90;;;;;;5046916;28;20042;-77
2023/12/30 06:55:31;;;;;;;30.33;14.70;;;3.70;99.90;;;;;;5037050;28;20033;-77
2023/12/30 06:57:56;;;;;;;28.85;15.57;;;3.70;99.90;;;;;;5057106;28;20460;-77
2023/12/30 07:00:22;;;;;;;29.70;17.27;;;3.70;99.90;;;;;;5044030;28;20044;-76
2023/12/30 07:02:47;;;;;;;29.90;15.23;;;3.70;99.90;;;;;;5053277;28;20029;-78
2023/12/30 07:05:13;;;;;;;24.50;13.73;;;3.70;99.90;;;;;;5039381;28;20410;-77
2023/12/30 07:07:39;;;;;;;29.43;13.70;;;3.70;99.90;;;;;;5037122;28;20039;-77
2023/12/30 07:10:05;;;;;;;23.08;12.25;;;3.70;99.90;;;;;;5046105;28;20051;-78
2023/12/30 07:12:31;;;;;;;23.63;13.23;;;3.70;99.90;;;;;;5033104;28;20026;-76
2023/12/30 07:14:57;;;;;;;27.83;13.67;;;3.70;99.90;;;;;;5041459;28;20109;-77
2023/12/30 07:17:23;;;;;;;23.75;13.02;;;3.70;99.90;;;;;;5037876;28;20038;-77
2023/12/30 07:19:48;;;;;;;29.17;13.35;;;3.80;99.90;;;;;;5041984;28;20029;-77
2023/12/30 07:22:15;;;;;;;30.30;14.20;;;3.80;99.90;;;;;;5038681;28;20060;-77
2023/12/30 07:24:40;;;;;;;24.85;12.75;;;3.80;99.90;;;;;;5043062;28;20046;-77
2023/12/30 07:27:06;;;;;;;28.43;14.17;;;3.80;99.90;;;;;;5042231;28;20083;-77
2023/12/30 07:29:33;;;;;;;32.45;14.00;;;3.80;99.90;;;;;;5040061;28;20564;-74
2023/12/30 07:31:59;;;;;;;27.20;13.85;;;3.80;99.90;;;;;;5038880;28;20037;-76
2023/12/30 07:34:25;;;;;;;33.55;14.95;;;3.90;99.90;;;;;;5042591;28;20035;-75
2023/12/30 07:36:51;;;;;;;30.57;14.53;;;3.80;99.90;;;;;;5043391;28;20044;-75
2023/12/30 07:39:17;;;;;;;29.90;15.10;;;3.90;99.90;;;;;;5044862;28;20548;-75
2023/12/30 07:41:43;;;;;;;30.30;14.77;;;3.90;99.90;;;;;;5039837;28;20041;-75
2023/12/30 07:44:08;;;;;;;31.70;14.98;;;3.90;99.90;;;;;;5036422;28;20041;-74
2023/12/30 07:46:37;;;;;;;24.83;13.93;;;4.00;99.90;;;;;;5041959;28;20086;-76
2023/12/30 07:49:03;;;;;;;31.77;13.95;;;4.10;99.90;;;;;;5045468;28;20035;-76
2023/12/30 07:51:29;;;;;;;32.90;14.70;;;4.10;99.90;;;;;;5037601;28;20097;-76
2023/12/30 07:53:54;;;;;;;24.23;14.20;;;4.00;99.90;;;;;;5040524;28;20291;-77
2023/12/30 07:56:20;;;;;;;25.20;14.50;;;4.00;99.90;;;;;;5037205;28;20037;-78
2023/12/30 07:58:46;;;;;;;26.33;14.13;;;4.00;99.90;;;;;;5038780;28;20421;-78
2023/12/30 08:01:12;;;;;;;24.33;13.48;;;4.00;99.90;;;;;;5039441;28;20482;-78
2023/12/30 08:03:37;;;;;;;33.35;13.82;;;4.10;99.90;;;;;;5041055;28;20414;-78
2023/12/30 08:06:03;;;;;;;29.97;14.63;;;4.30;99.90;;;;;;5041939;28;20033;-78
2023/12/30 08:08:29;;;;;;;25.27;12.95;;;4.60;99.90;;;;;;5038290;28;20419;-78
2023/12/30 08:10:55;;;;;;;21.90;12.95;;;5.00;99.90;;;;;;5045641;28;20032;-78
2023/12/30 08:13:22;;;;;;;25.75;12.93;;;5.10;99.90;;;;;;5041071;28;20104;-80
2023/12/30 08:15:47;;;;;;;27.70;13.85;;;5.10;99.90;;;;;;5040495;28;20482;-76
2023/12/30 08:18:13;;;;;;;22.47;13.37;;;5.30;99.90;;;;;;5040132;28;20074;-77
2023/12/30 08:20:38;;;;;;;28.50;14.32;;;5.30;99.90;;;;;;5038280;28;20072;-76
2023/12/30 08:23:04;;;;;;;25.43;14.73;;;5.40;99.90;;;;;;5042910;28;20033;-75
2023/12/30 08:25:30;;;;;;;29.73;15.02;;;5.40;99.90;;;;;;5040978;28;20025;-76
2023/12/30 08:27:56;;;;;;;27.95;14.75;;;5.20;99.90;;;;;;5042350;28;20060;-73
2023/12/30 08:30:22;;;;;;;36.50;14.98;;;5.10;99.90;;;;;;5046029;28;20398;-72
2023/12/30 08:32:48;;;;;;;24.23;14.02;;;5.00;99.90;;;;;;5050501;28;20033;-72
2023/12/30 08:35:14;;;;;;;23.40;13.47;;;5.00;99.90;;;;;;5046112;28;20406;-80
2023/12/30 08:37:39;;;;;;;34.40;19.25;;;4.90;99.90;;;;;;5042864;28;20290;-78
2023/12/30 08:40:08;;;;;;;28.57;15.83;;;4.90;99.90;;;;;;5046840;28;20033;-78
2023/12/30 08:42:35;;;;;;;32.30;17.42;;;4.80;99.90;;;;;;5046100;28;20029;-78
2023/12/30 08:45:04;;;;;;;29.73;16.63;;;4.80;99.90;;;;;;5043608;28;20034;-77
2023/12/30 08:47:34;;;;;;;30.55;18.27;;;4.90;99.90;;;;;;5043293;28;20813;-78
2023/12/30 08:50:00;;;;;;;30.38;19.73;;;5.00;99.90;;;;;;5043498;28;20029;-77
2023/12/30 08:52:26;;;;;;;;;;;5.60;99.90;;;;;;5056212;28;20030;-76
2023/12/30 08:54:52;;;;;;;29.92;18.13;;;7.90;99.90;;;;;;5049932;28;20805;-77
2023/12/30 08:57:17;;;;;;;36.43;19.50;;;10.10;99.90;;;;;;5044444;28;20116;-78
2023/12/30 08:59:43;;;;;;;38.47;19.53;;;10.50;97.70;;;;;;5039327;28;20037;-78
2023/12/30 09:02:08;;;;;;;35.63;19.70;;;8.80;99.90;;;;;;5048669;28;20170;-78
2023/12/30 09:04:34;;;;;;;28.73;17.93;;;7.60;99.90;;;;;;5039369;28;20052;-77
2023/12/30 09:07:00;;;;;;;26.53;15.20;;;7.20;99.90;;;;;;5040810;28;20040;-77
2023/12/30 09:09:25;;;;;;;25.00;15.23;;;6.80;99.90;;;;;;5037384;28;20094;-77
2023/12/30 09:11:51;;;;;;;26.00;14.80;;;6.90;99.90;;;;;;5045219;28;20032;-77
2023/12/30 09:14:17;;;;;;;29.57;14.27;;;6.70;99.90;;;;;;5037228;28;20287;-73
2023/12/30 09:16:43;;;;;;;19.30;12.90;;;6.60;99.90;;;;;;5038409;28;20113;-75
2023/12/30 09:19:08;;;;;;;24.00;13.82;;;6.50;99.90;;;;;;5048364;28;20040;-75
2023/12/30 09:21:34;;;;;;;24.20;14.00;;;6.30;99.90;;;;;;5042888;28;20030;-74
2023/12/30 09:24:00;;;;;;;22.53;12.83;;;6.30;99.90;;;;;;5047315;28;20033;-76
2023/12/30 09:26:25;;;;;;;21.63;13.63;;;6.20;99.90;;;;;;5047024;28;20089;-76
2023/12/30 09:28:52;;;;;;;27.83;14.50;;;6.20;99.90;;;;;;5041627;28;20515;-74
2023/12/30 09:31:20;;;;;;;26.30;14.40;;;6.20;99.90;;;;;;5048878;28;20017;-74
2023/12/30 09:33:46;;;;;;;30.40;15.55;;;6.20;99.90;;;;;;5039719;28;20029;-74
2023/12/30 09:36:12;;;;;;;24.17;16.15;;;6.20;99.90;;;;;;5042205;28;20551;-74
2023/12/30 09:38:38;;;;;;;28.87;15.43;;;6.20;99.90;;;;;;5047134;28;20108;-74
2023/12/30 09:41:05;;;;;;;23.87;15.23;;;6.30;99.90;;;;;;5050086;28;20037;-75
2023/12/30 09:43:32;;;;;;;23.42;15.13;;;6.40;99.90;;;;;;5037041;28;20044;-76
2023/12/30 09:45:59;;;;;;;29.40;16.05;;;6.40;99.90;;;;;;5039476;28;20026;-75
2023/12/30 09:48:26;;;;;;;28.33;15.95;;;6.40;99.90;;;;;;5040582;28;20727;-75
2023/12/30 09:50:56;;;;;;;32.83;16.30;;;6.50;99.90;;;;;;5071097;28;20398;-75
2023/12/30 09:53:22;;;;;;;28.42;15.93;;;6.40;99.90;;;;;;5040124;28;20024;-74
2023/12/30 09:55:50;;;;;;;;;;;6.30;99.90;;;;;;5044410;28;20039;-74
2023/12/30 09:58:17;;;;;;;28.88;15.68;;;6.40;99.90;;;;;;5040305;28;20293;-74
2023/12/30 10:00:43;;;;;;;25.08;15.23;;;6.30;99.90;;;;;;5040054;28;20041;-75
2023/12/30 10:03:13;;;;;;;21.95;12.93;;;6.30;99.90;;;;;;5044541;28;20479;-74
2023/12/30 10:05:39;;;;;;;24.52;13.93;;;6.30;99.90;;;;;;5039219;28;20040;-74
2023/12/30 10:08:06;;;;;;;24.27;13.50;;;6.40;99.90;;;;;;5059040;28;20491;-74
2023/12/30 10:10:51;;;;;;;34.70;14.38;;;6.40;99.90;;;;;;5051744;28;20414;-75
2023/12/30 10:13:21;;;;;;;27.77;15.50;;;6.40;99.90;;;;;;5038726;28;20033;-74
2023/12/30 10:15:47;;;;;;;21.40;13.00;;;6.40;99.90;;;;;;5045101;28;20025;-74
2023/12/30 10:18:15;;;;;;;26.80;13.52;;;6.40;99.90;;;;;;5036964;28;20079;-74
2023/12/30 10:20:42;;;;;;;36.03;16.02;;;6.40;99.90;;;;;;5039299;28;20028;-77
2023/12/30 10:23:07;;;;;;;30.50;16.77;;;6.50;99.90;;;;;;5040710;28;20466;-75
2023/12/30 10:25:34;;;;;;;35.37;18.10;;;6.50;99.90;;;;;;5044782;28;20068;-75
2023/12/30 10:28:01;;;;;;;38.53;17.40;;;6.50;99.90;;;;;;5038380;28;20529;-75
2023/12/30 10:30:28;;;;;;;41.05;17.73;;;6.50;99.90;;;;;;5040173;28;20139;-75
2023/12/30 10:33:08;;;;;;;36.10;17.48;;;6.50;99.90;;;;;;5048674;28;20391;-76
2023/12/30 10:35:35;;;;;;;38.53;20.02;;;6.50;99.90;;;;;;5043745;28;20056;-76
2023/12/30 10:38:04;;;;;;;32.20;17.15;;;6.60;99.90;;;;;;5044766;28;20513;-75
2023/12/30 10:40:30;;;;;;;29.25;16.33;;;6.60;99.90;;;;;;5047792;28;20028;-76
2023/12/30 10:42:57;;;;;;;27.23;15.52;;;6.60;99.90;;;;;;5042889;28;20033;-75
2023/12/30 10:45:23;;;;;;;;;;;6.70;99.90;;;;;;5047435;28;20123;-75
2023/12/30 10:47:50;;;;;;;36.30;16.88;;;6.70;99.90;;;;;;5044636;28;19904;-75
2023/12/30 10:50:15;;;;;;;38.08;18.58;;;6.70;99.90;;;;;;5048249;28;20028;-75
2023/12/30 10:52:49;;;;;;;32.85;17.70;;;6.70;99.90;;;;;;5044478;28;20025;-76
2023/12/30 10:55:17;;;;;;;32.08;16.70;;;6.70;99.90;;;;;;5044128;28;20043;-75
2023/12/30 10:58:03;;;;;;;33.53;17.58;;;6.80;99.90;;;;;;5051943;28;20032;-75
2023/12/30 11:00:34;;;;;;;32.45;18.15;;;6.80;99.90;;;;;;5047352;28;20029;-75
2023/12/30 11:03:00;;;;;;;30.50;16.80;;;6.80;99.90;;;;;;5043930;28;20553;-75
2023/12/30 11:05:38;;;;;;;31.02;16.88;;;7.00;99.90;;;;;;5037263;28;20571;-76
2023/12/30 11:08:04;;;;;;;28.35;16.55;;;7.10;99.90;;;;;;5038609;28;20471;-76
2023/12/30 11:10:31;;;;;;;;;;;7.10;99.90;;;;;;5043113;28;20095;-75
2023/12/30 11:12:57;;;;;;;29.48;16.77;;;7.10;99.90;;;;;;5030694;28;20371;-75
2023/12/30 11:15:28;;;;;;;28.87;16.40;;;7.20;99.90;;;;;;5039208;28;20125;-76
2023/12/30 11:17:58;;;;;;;30.20;16.63;;;7.20;99.90;;;;;;5046687;28;20037;-75
2023/12/30 11:20:24;;;;;;;27.95;16.50;;;7.20;99.90;;;;;;5042857;28;20021;-76
2023/12/30 11:22:54;;;;;;;24.58;15.70;;;7.30;99.90;;;;;;5041192;28;20056;-75
2023/12/30 11:25:21;;;;;;;32.08;17.27;;;7.30;99.90;;;;;;5048434;28;20045;-75
2023/12/30 11:28:07;;;;;;;25.88;14.82;;;7.40;99.90;;;;;;5038967;28;20021;-75
2023/12/30 11:30:32;;;;;;;29.65;15.80;;;7.40;99.90;;;;;;5038950;28;20464;-76
2023/12/30 11:32:58;;;;;;;29.77;17.60;;;7.40;99.90;;;;;;5041225;28;20025;-75
2023/12/30 11:35:24;;;;;;;33.35;16.10;;;7.50;99.90;;;;;;5041281;28;20030;-77
2023/12/30 11:37:54;;;;;;;28.60;15.60;;;7.50;99.90;;;;;;5042547;28;20041;-76
2023/12/30 11:40:20;;;;;;;24.67;16.13;;;7.50;99.90;;;;;;5037396;28;20033;-75
2023/12/30 11:42:46;;;;;;;29.20;16.75;;;7.60;99.90;;;;;;5040984;28;20116;-75
2023/12/30 11:45:12;;;;;;;29.33;16.57;;;7.60;99.90;;;;;;5041196;28;20557;-75
2023/12/30 11:47:40;;;;;;;30.50;16.70;;;7.60;99.90;;;;;;5040360;28;20070;-75
2023/12/30 11:50:09;;;;;;;34.38;15.65;;;7.60;99.90;;;;;;5039858;28;20295;-76
2023/12/30 11:52:42;;;;;;;26.40;14.98;;;7.60;99.90;;;;;;5040249;28;20037;-76
2023/12/30 11:55:08;;;;;;;29.13;16.95;;;7.80;99.90;;;;;;5039862;28;20032;-74
2023/12/30 11:57:33;;;;;;;35.58;17.85;;;7.80;99.90;;;;;;5046564;28;20022;-75
2023/12/30 11:59:59;;;;;;;31.43;17.33;;;7.90;99.90;;;;;;5062140;28;20029;-75
2023/12/30 12:02:28;;;;;;;37.67;19.35;;;7.90;99.90;;;;;;5047402;28;20032;-74
2023/12/30 12:04:53;;;;;;;34.78;18.83;;;7.90;99.90;;;;;;5047761;28;20037;-74
2023/12/30 12:07:19;;;;;;;33.85;18.90;;;7.90;99.90;;;;;;5042421;28;20509;-75
2023/12/30 12:09:45;;;;;;;32.93;18.30;;;7.90;99.90;;;;;;5043401;28;20043;-74
2023/12/30 12:12:11;;;;;;;36.83;18.03;;;8.00;99.90;;;;;;5042068;28;20037;-75
2023/12/30 12:14:37;;;;;;;30.35;18.40;;;8.00;99.90;;;;;;5053502;28;20043;-74
2023/12/30 12:17:04;;;;;;;33.60;18.50;;;8.10;99.90;;;;;;5046670;28;20115;-74
2023/12/30 12:19:30;;;;;;;32.85;16.98;;;8.10;99.90;;;;;;5047008;28;20029;-75
2023/12/30 12:22:00;;;;;;;29.40;17.40;;;8.10;99.90;;;;;;5048197;28;20055;-75
2023/12/30 12:24:26;;;;;;;35.63;18.45;;;8.20;99.90;;;;;;5037721;28;20148;-74
2023/12/30 12:26:55;;;;;;;27.08;16.45;;;8.20;99.90;;;;;;5040069;28;20040;-75
2023/12/30 12:29:21;;;;;;;32.10;17.50;;;8.40;99.90;;;;;;5043464;28;20039;-74
2023/12/30 12:31:46;;;;;;;26.57;16.23;;;8.40;99.90;;;;;;5050080;28;20025;-75
2023/12/30 12:34:23;;;;;;;28.27;17.03;;;8.50;99.90;;;;;;5050833;28;20045;-75
2023/12/30 12:36:48;;;;;;;29.20;17.15;;;8.60;99.90;;;;;;5042590;28;20415;-75